Time;durP1;ratioP1;P1;durP2;ratioP2;P2;SDS_P1;SDS_P2;PMS_P1;PMS_P2;Temp;Humidity;BMP_temperature;BMP_pressure;BME280_temperature;BME280_humidity;BME280_pressure;Samples;Min_cycle;Max_cycle;Signal;HPM_P1;HPM_P2
2023/11/01 00:02:23;;;;;;;2.50;2.00;;;14.80;77.80;;;;;;5010944;28;20478;-75
2023/11/01 00:04:49;;;;;;;3.90;2.20;;;14.80;77.80;;;;;;5031175;28;20100;-81
2023/11/01 00:07:15;;;;;;;3.35;2.20;;;14.80;77.80;;;;;;5003121;28;20032;-76
2023/11/01 00:09:41;;;;;;;2.65;1.95;;;14.80;77.80;;;;;;5000450;28;20025;-75
2023/11/01 00:12:07;;;;;;;2.33;2.00;;;14.80;77.70;;;;;;5022561;28;20502;-75
2023/11/01 00:14:32;;;;;;;3.17;2.20;;;14.80;77.80;;;;;;5009203;28;20135;-74
2023/11/01 00:16:58;;;;;;;2.60;2.00;;;14.80;77.80;;;;;;5036100;28;20045;-75
2023/11/01 00:19:24;;;;;;;2.65;1.95;;;14.80;77.70;;;;;;5042271;28;20046;-74
2023/11/01 00:21:50;;;;;;;3.63;2.20;;;14.80;77.70;;;;;;5034866;28;20033;-76
2023/11/01 00:24:15;;;;;;;2.47;2.03;;;14.80;77.70;;;;;;5030995;28;20037;-75
2023/11/01 00:26:41;;;;;;;3.42;2.20;;;14.80;77.70;;;;;;5035733;28;20071;-76
2023/11/01 00:29:07;;;;;;;2.65;2.00;;;14.80;77.70;;;;;;5033757;28;20026;-76
2023/11/01 00:31:32;;;;;;;3.13;1.92;;;14.80;77.70;;;;;;5027445;28;20033;-76
2023/11/01 00:33:58;;;;;;;2.78;1.95;;;14.80;77.70;;;;;;5021094;28;20103;-76
2023/11/01 00:36:24;;;;;;;2.03;1.73;;;14.80;77.70;;;;;;5015140;28;20063;-75
2023/11/01 00:38:50;;;;;;;2.78;2.10;;;14.80;77.80;;;;;;5041424;28;20033;-76
2023/11/01 00:41:15;;;;;;;3.25;2.10;;;14.80;77.80;;;;;;5036655;28;20382;-75
2023/11/01 00:43:41;;;;;;;2.60;1.90;;;14.80;77.80;;;;;;5039329;28;20429;-75
2023/11/01 00:46:07;;;;;;;3.10;2.13;;;14.80;77.70;;;;;;5006293;28;20443;-76
2023/11/01 00:48:33;;;;;;;2.55;1.80;;;14.80;77.70;;;;;;5009578;28;20029;-75
2023/11/01 00:50:59;;;;;;;4.03;1.90;;;14.80;77.80;;;;;;5037176;28;20052;-75
2023/11/01 00:53:25;;;;;;;2.58;1.83;;;14.80;77.80;;;;;;5030888;28;20038;-76
2023/11/01 00:55:50;;;;;;;2.33;1.80;;;14.80;77.80;;;;;;5017810;28;20067;-76
2023/11/01 00:58:16;;;;;;;3.03;1.92;;;14.80;77.80;;;;;;5013674;28;20026;-75
2023/11/01 01:00:42;;;;;;;1.73;1.60;;;14.80;77.80;;;;;;4997191;28;20076;-74
2023/11/01 01:03:10;;;;;;;2.85;1.92;;;14.80;77.80;;;;;;5017588;28;20022;-75
2023/11/01 01:05:36;;;;;;;3.38;2.17;;;14.80;77.80;;;;;;5034018;28;20055;-75
2023/11/01 01:08:01;;;;;;;2.10;1.65;;;14.80;77.80;;;;;;5034922;28;20029;-76
2023/11/01 01:10:27;;;;;;;1.77;1.67;;;14.80;77.80;;;;;;5025225;28;20029;-75
2023/11/01 01:12:53;;;;;;;2.58;1.92;;;14.80;77.80;;;;;;5018781;28;20049;-75
2023/11/01 01:15:19;;;;;;;1.60;1.48;;;14.80;77.80;;;;;;5035450;28;20479;-76
2023/11/01 01:17:44;;;;;;;2.03;1.83;;;14.80;77.80;;;;;;5019957;28;20533;-75
2023/11/01 01:20:11;;;;;;;2.85;1.92;;;14.80;78.40;;;;;;5006985;28;20045;-75
2023/11/01 01:22:37;;;;;;;2.17;1.92;;;14.80;77.80;;;;;;5030636;28;20038;-75
2023/11/01 01:25:03;;;;;;;2.63;1.80;;;14.80;77.80;;;;;;5037060;28;20033;-75
2023/11/01 01:27:28;;;;;;;2.65;1.73;;;14.70;77.80;;;;;;5033029;28;20037;-75
2023/11/01 01:29:54;;;;;;;2.50;1.75;;;14.80;77.80;;;;;;5040442;28;20417;-74
2023/11/01 01:32:20;;;;;;;3.58;1.80;;;14.80;77.80;;;;;;5032688;28;20036;-76
2023/11/01 01:34:46;;;;;;;2.10;1.52;;;14.70;77.80;;;;;;5014475;28;20486;-77
2023/11/01 01:37:12;;;;;;;2.30;1.80;;;14.70;77.80;;;;;;5024131;28;20025;-75
2023/11/01 01:39:38;;;;;;;2.25;1.75;;;14.70;77.80;;;;;;5032963;28;20022;-76
2023/11/01 01:42:03;;;;;;;2.25;1.80;;;14.80;77.80;;;;;;5015385;28;20072;-75
2023/11/01 01:44:29;;;;;;;2.40;1.73;;;14.80;77.80;;;;;;4996152;28;20374;-75
2023/11/01 01:46:56;;;;;;;1.83;1.67;;;14.80;77.80;;;;;;5036899;28;20124;-75
2023/11/01 01:49:22;;;;;;;1.60;1.50;;;14.70;77.70;;;;;;5006291;28;20033;-75
2023/11/01 01:51:48;;;;;;;2.22;1.63;;;14.80;77.80;;;;;;5020889;28;20033;-75
2023/11/01 01:54:14;;;;;;;1.60;1.50;;;14.80;77.80;;;;;;5040694;28;20363;-75
2023/11/01 01:56:40;;;;;;;1.60;1.50;;;14.70;77.70;;;;;;5019208;28;20052;-75
2023/11/01 01:59:06;;;;;;;3.03;1.65;;;14.80;77.80;;;;;;5034789;28;20138;-75
2023/11/01 02:01:34;;;;;;;2.30;1.52;;;14.70;77.80;;;;;;5000961;28;20029;-76
2023/11/01 02:03:59;;;;;;;2.65;1.75;;;14.80;77.80;;;;;;5033953;28;20029;-75
2023/11/01 02:06:25;;;;;;;2.00;1.70;;;14.70;77.70;;;;;;5030884;28;20040;-76
2023/11/01 02:08:51;;;;;;;2.33;1.65;;;14.80;77.80;;;;;;5015484;28;20033;-75
2023/11/01 02:11:17;;;;;;;1.92;1.70;;;14.70;77.70;;;;;;5016775;28;20431;-75
2023/11/01 02:13:43;;;;;;;1.75;1.52;;;14.70;77.70;;;;;;5033587;28;20069;-75
2023/11/01 02:16:08;;;;;;;1.48;1.38;;;14.80;77.80;;;;;;4998641;28;20069;-77
2023/11/01 02:18:34;;;;;;;1.92;1.65;;;14.70;77.70;;;;;;5026794;28;20028;-75
2023/11/01 02:21:04;;;;;;;2.58;1.73;;;14.80;77.80;;;;;;5027691;28;20375;-76
2023/11/01 02:23:32;;;;;;;4.25;1.80;;;14.80;77.80;;;;;;5034522;28;20119;-75
2023/11/01 02:25:59;;;;;;;1.73;1.50;;;14.70;77.70;;;;;;5012319;28;20053;-75
2023/11/01 02:28:24;;;;;;;2.15;1.60;;;14.70;77.70;;;;;;5012209;28;20039;-76
2023/11/01 02:30:50;;;;;;;2.15;1.67;;;14.70;77.70;;;;;;5025617;28;20408;-75
2023/11/01 02:33:16;;;;;;;2.08;1.45;;;14.70;77.70;;;;;;5038048;28;20066;-76
2023/11/01 02:35:42;;;;;;;2.72;1.60;;;14.70;77.70;;;;;;5033357;28;20044;-75
2023/11/01 02:38:09;;;;;;;1.88;1.52;;;14.70;77.70;;;;;;5039878;28;20116;-75
2023/11/01 02:40:35;;;;;;;1.70;1.60;;;14.70;77.70;;;;;;5019184;28;20178;-74
2023/11/01 02:43:01;;;;;;;2.30;1.50;;;14.70;77.60;;;;;;5031669;28;20140;-75
2023/11/01 02:45:26;;;;;;;2.00;1.30;;;14.70;77.60;;;;;;5033222;28;20029;-75
2023/11/01 02:47:52;;;;;;;1.40;1.30;;;14.70;77.70;;;;;;5023865;28;20448;-75
2023/11/01 02:50:19;;;;;;;1.42;1.33;;;14.70;77.70;;;;;;5037789;28;20489;-75
2023/11/01 02:52:46;;;;;;;2.20;1.40;;;14.70;77.70;;;;;;5027303;28;20494;-74
2023/11/01 02:55:14;;;;;;;1.67;1.40;;;14.70;77.70;;;;;;5032209;28;20044;-75
2023/11/01 02:57:40;;;;;;;1.83;1.40;;;14.70;77.70;;;;;;5019996;28;20061;-76
2023/11/01 03:00:08;;;;;;;1.83;1.60;;;14.70;77.70;;;;;;5043309;28;20124;-75
2023/11/01 03:02:37;;;;;;;2.20;1.52;;;14.70;77.70;;;;;;5012299;28;20048;-75
2023/11/01 03:05:04;;;;;;;2.40;1.55;;;14.70;77.80;;;;;;5030845;28;20037;-75
2023/11/01 03:07:31;;;;;;;1.58;1.48;;;14.70;77.80;;;;;;5018211;28;20112;-76
2023/11/01 03:09:57;;;;;;;2.13;1.67;;;14.70;77.80;;;;;;5019613;28;20381;-75
2023/11/01 03:12:22;;;;;;;1.40;1.30;;;14.70;77.80;;;;;;4998746;28;20041;-75
2023/11/01 03:14:48;;;;;;;1.40;1.30;;;14.70;77.80;;;;;;5030971;28;20040;-75
2023/11/01 03:17:14;;;;;;;1.42;1.33;;;14.70;77.80;;;;;;5035059;28;20457;-75
2023/11/01 03:19:40;;;;;;;1.52;1.40;;;14.70;77.70;;;;;;4978766;28;20079;-75
2023/11/01 03:22:06;;;;;;;1.60;1.50;;;14.70;77.80;;;;;;5035537;28;20030;-75
2023/11/01 03:24:32;;;;;;;1.20;1.10;;;14.70;77.80;;;;;;5033237;28;20090;-76
2023/11/01 03:26:58;;;;;;;1.92;1.52;;;14.70;77.80;;;;;;5031966;28;20021;-75
2023/11/01 03:29:24;;;;;;;1.83;1.40;;;14.70;77.80;;;;;;5028972;28;20382;-76
2023/11/01 03:31:51;;;;;;;1.88;1.33;;;14.70;77.80;;;;;;5020791;28;20025;-76
2023/11/01 03:34:16;;;;;;;1.83;1.52;;;14.70;77.80;;;;;;5030621;28;20126;-76
2023/11/01 03:36:42;;;;;;;1.50;1.40;;;14.70;77.80;;;;;;5039655;28;20478;-76
2023/11/01 03:39:10;;;;;;;1.50;1.30;;;14.70;77.90;;;;;;5014168;28;20075;-75
2023/11/01 03:41:42;;;;;;;1.25;1.15;;;14.60;77.80;;;;;;5033886;28;20029;-75
2023/11/01 03:44:09;;;;;;;2.03;1.30;;;14.70;77.90;;;;;;5034734;28;20033;-75
2023/11/01 03:46:35;;;;;;;1.77;1.38;;;14.70;77.90;;;;;;5004730;28;20064;-76
2023/11/01 03:49:01;;;;;;;2.42;1.40;;;14.60;77.80;;;;;;5033116;28;20030;-76
2023/11/01 03:51:27;;;;;;;1.25;1.15;;;14.60;77.80;;;;;;5020507;28;20394;-75
2023/11/01 03:53:53;;;;;;;1.30;1.20;;;14.60;77.80;;;;;;5025472;28;20052;-76
2023/11/01 03:56:20;;;;;;;1.77;1.50;;;14.60;77.80;;;;;;5036102;28;20041;-76
2023/11/01 03:58:46;;;;;;;2.20;1.42;;;14.70;77.90;;;;;;5034869;28;20466;-75
2023/11/01 04:01:12;;;;;;;1.75;1.50;;;14.70;77.90;;;;;;5006530;28;20033;-75
2023/11/01 04:03:38;;;;;;;1.67;1.35;;;14.60;77.80;;;;;;5025774;28;20421;-76
2023/11/01 04:06:04;;;;;;;1.33;1.23;;;14.60;77.80;;;;;;5032382;28;20041;-77
2023/11/01 04:08:29;;;;;;;1.35;1.17;;;14.60;77.80;;;;;;5017023;28;20038;-75
2023/11/01 04:10:55;;;;;;;2.83;1.75;;;14.60;77.80;;;;;;5017353;28;20470;-75
2023/11/01 04:13:21;;;;;;;1.35;1.25;;;14.60;77.90;;;;;;5033137;28;20037;-75
2023/11/01 04:15:47;;;;;;;1.25;1.17;;;14.60;77.90;;;;;;5018868;28;20049;-75
2023/11/01 04:18:12;;;;;;;1.60;1.20;;;14.60;77.90;;;;;;5032461;28;20029;-76
2023/11/01 04:20:38;;;;;;;1.58;1.30;;;14.70;77.90;;;;;;5016791;28;20058;-76
2023/11/01 04:23:05;;;;;;;1.98;1.48;;;14.60;77.90;;;;;;5038516;28;20033;-75
2023/11/01 04:25:32;;;;;;;1.25;1.15;;;14.60;77.90;;;;;;5016466;28;20029;-76
2023/11/01 04:27:58;;;;;;;1.27;1.17;;;14.60;77.90;;;;;;5045517;28;20174;-75
2023/11/01 04:30:24;;;;;;;1.75;1.30;;;14.60;77.90;;;;;;5021393;28;20079;-76
2023/11/01 04:32:51;;;;;;;1.73;1.20;;;14.60;77.90;;;;;;5023361;28;20022;-76
2023/11/01 04:35:16;;;;;;;1.40;1.30;;;14.60;77.90;;;;;;5031851;28;20044;-76
2023/11/01 04:37:42;;;;;;;1.92;1.20;;;14.60;77.90;;;;;;5018761;28;20017;-75
2023/11/01 04:40:11;;;;;;;1.63;1.35;;;14.60;77.90;;;;;;5039494;28;20021;-77
2023/11/01 04:42:41;;;;;;;1.58;1.48;;;14.60;78.00;;;;;;5022106;28;20033;-76
2023/11/01 04:45:08;;;;;;;1.35;1.25;;;14.60;78.00;;;;;;5039195;28;20037;-75
2023/11/01 04:47:35;;;;;;;1.20;1.10;;;14.60;78.00;;;;;;5033297;28;20029;-75
2023/11/01 04:50:02;;;;;;;1.40;1.30;;;14.60;78.00;;;;;;5027097;28;20116;-75
2023/11/01 04:52:28;;;;;;;1.42;1.10;;;14.60;78.00;;;;;;5035171;28;20037;-75
2023/11/01 04:54:54;;;;;;;1.85;1.25;;;14.60;78.00;;;;;;4997928;28;20045;-75
2023/11/01 04:57:20;;;;;;;1.38;1.27;;;14.60;78.00;;;;;;5034848;28;20414;-75
2023/11/01 04:59:46;;;;;;;1.30;1.10;;;14.60;78.10;;;;;;5044442;28;20029;-76
2023/11/01 05:02:11;;;;;;;1.42;1.20;;;14.60;78.00;;;;;;5033763;28;20025;-76
2023/11/01 05:04:37;;;;;;;1.23;1.15;;;14.60;78.00;;;;;;5035470;28;20036;-75
2023/11/01 05:07:03;;;;;;;1.20;1.10;;;14.60;78.00;;;;;;5031890;28;20049;-76
2023/11/01 05:09:29;;;;;;;1.30;1.15;;;14.60;78.00;;;;;;5021107;28;20034;-75
2023/11/01 05:11:55;;;;;;;1.45;1.10;;;14.60;78.00;;;;;;5015936;28;20075;-75
2023/11/01 05:14:20;;;;;;;1.20;1.10;;;14.60;78.00;;;;;;5016473;28;20351;-75
2023/11/01 05:16:46;;;;;;;1.17;1.10;;;14.60;78.00;;;;;;4999737;28;20072;-76
2023/11/01 05:19:12;;;;;;;1.20;1.10;;;14.60;78.10;;;;;;5037968;28;20073;-75
2023/11/01 05:21:38;;;;;;;1.70;1.40;;;14.60;78.00;;;;;;5039895;28;20041;-75
2023/11/01 05:24:05;;;;;;;1.35;1.20;;;14.60;78.00;;;;;;5040017;28;20030;-75
2023/11/01 05:26:34;;;;;;;1.35;1.15;;;14.60;78.00;;;;;;5007328;28;20033;-77
2023/11/01 05:29:00;;;;;;;1.00;1.00;;;14.60;78.10;;;;;;5047786;28;20025;-75
2023/11/01 05:31:26;;;;;;;1.30;1.20;;;14.60;78.00;;;;;;5013581;28;20040;-75
2023/11/01 05:33:53;;;;;;;1.42;1.13;;;14.60;78.00;;;;;;5031539;28;20021;-75
2023/11/01 05:36:19;;;;;;;0.90;0.90;;;14.60;78.00;;;;;;5017891;28;20425;-76
2023/11/01 05:38:45;;;;;;;1.17;1.08;;;14.60;78.00;;;;;;5033507;28;20029;-75
2023/11/01 05:41:11;;;;;;;1.20;1.10;;;14.60;78.00;;;;;;5028506;28;20112;-75
2023/11/01 05:43:38;;;;;;;0.90;0.90;;;14.60;78.00;;;;;;5014681;28;20494;-75
2023/11/01 05:46:05;;;;;;;1.65;1.10;;;14.60;78.00;;;;;;5039164;28;20045;-76
2023/11/01 05:48:34;;;;;;;0.93;0.93;;;14.60;78.10;;;;;;5020448;28;20026;-75
2023/11/01 05:51:00;;;;;;;1.30;1.20;;;14.70;78.10;;;;;;5011655;28;20061;-75
2023/11/01 05:53:26;;;;;;;1.20;1.20;;;14.60;78.00;;;;;;5035825;28;20370;-76
2023/11/01 05:55:55;;;;;;;1.15;1.08;;;14.60;78.10;;;;;;5031079;28;20064;-76
2023/11/01 05:58:21;;;;;;;1.30;1.20;;;14.60;78.00;;;;;;5032669;28;20482;-76
2023/11/01 06:00:48;;;;;;;1.20;1.10;;;14.60;78.00;;;;;;5013580;28;20124;-75
2023/11/01 06:03:14;;;;;;;1.35;1.20;;;14.70;78.10;;;;;;5039514;28;20029;-78
2023/11/01 06:05:40;;;;;;;1.10;1.00;;;14.70;78.10;;;;;;5017216;28;20029;-76
2023/11/01 06:08:08;;;;;;;1.27;1.17;;;14.60;78.10;;;;;;5041178;28;20138;-76
2023/11/01 06:10:38;;;;;;;1.17;1.10;;;14.70;78.10;;;;;;5002934;28;20044;-75
2023/11/01 06:13:07;;;;;;;1.20;1.10;;;14.70;78.10;;;;;;5033940;28;20034;-75
2023/11/01 06:15:37;;;;;;;1.30;1.20;;;14.70;78.10;;;;;;5030645;28;20037;-75
2023/11/01 06:18:06;;;;;;;1.20;1.10;;;14.70;78.20;;;;;;5036865;28;20030;-75
2023/11/01 06:20:35;;;;;;;0.90;0.90;;;14.70;78.10;;;;;;5035893;28;20071;-76
2023/11/01 06:23:01;;;;;;;1.00;1.00;;;14.70;78.10;;;;;;4995852;28;20038;-75
2023/11/01 06:25:27;;;;;;;1.38;1.05;;;14.70;78.10;;;;;;5037291;28;20029;-75
2023/11/01 06:27:54;;;;;;;1.80;1.45;;;14.70;78.10;;;;;;5039039;28;20485;-76
2023/11/01 06:30:20;;;;;;;1.40;1.30;;;14.70;78.20;;;;;;5029238;28;20037;-74
2023/11/01 06:32:46;;;;;;;1.20;1.10;;;14.70;78.10;;;;;;5031708;28;20394;-75
2023/11/01 06:35:12;;;;;;;1.08;1.05;;;14.70;78.10;;;;;;5033636;28;20075;-75
2023/11/01 06:37:38;;;;;;;1.80;1.20;;;14.70;78.10;;;;;;5037975;28;20044;-75
2023/11/01 06:40:05;;;;;;;1.60;1.20;;;14.70;78.10;;;;;;5046047;28;20032;-79
2023/11/01 06:42:31;;;;;;;1.73;1.20;;;14.70;78.10;;;;;;4998211;28;20025;-77
2023/11/01 06:44:57;;;;;;;1.77;1.27;;;14.70;78.10;;;;;;5013872;28;20561;-75
2023/11/01 06:47:23;;;;;;;1.30;1.20;;;14.80;78.20;;;;;;5039338;28;20029;-76
2023/11/01 06:49:49;;;;;;;1.20;1.10;;;14.70;78.10;;;;;;5018200;28;20037;-75
2023/11/01 06:52:14;;;;;;;1.25;1.15;;;14.80;78.10;;;;;;5023970;28;20029;-75
2023/11/01 06:54:40;;;;;;;1.17;1.08;;;14.80;78.10;;;;;;5037805;28;20041;-75
2023/11/01 06:57:07;;;;;;;1.30;1.20;;;14.80;78.10;;;;;;5022820;28;20124;-75
2023/11/01 06:59:33;;;;;;;1.30;1.20;;;14.80;78.00;;;;;;5022562;28;20034;-74
2023/11/01 07:01:58;;;;;;;2.25;1.33;;;14.80;78.00;;;;;;5034391;28;20532;-75
2023/11/01 07:04:24;;;;;;;2.67;1.17;;;14.80;78.00;;;;;;5023429;28;20375;-75
2023/11/01 07:06:50;;;;;;;1.60;1.30;;;14.80;78.00;;;;;;5033035;28;20064;-75
2023/11/01 07:09:16;;;;;;;1.80;1.20;;;14.80;78.00;;;;;;5020413;28;20114;-75
2023/11/01 07:11:42;;;;;;;2.10;1.25;;;14.80;78.00;;;;;;5041444;28;20020;-75
2023/11/01 07:14:09;;;;;;;1.23;1.05;;;14.90;78.00;;;;;;5008600;28;20029;-75
2023/11/01 07:16:39;;;;;;;1.17;1.00;;;14.90;78.00;;;;;;5006506;28;20041;-75
2023/11/01 07:19:06;;;;;;;1.33;1.20;;;14.90;78.00;;;;;;5018127;28;20026;-75
2023/11/01 07:21:32;;;;;;;1.33;1.20;;;14.80;78.00;;;;;;5029113;28;20029;-75
2023/11/01 07:23:57;;;;;;;1.48;1.17;;;14.90;78.00;;;;;;5032872;28;20031;-75
2023/11/01 07:26:23;;;;;;;1.70;1.20;;;14.80;77.90;;;;;;5033961;28;20042;-75
2023/11/01 07:28:49;;;;;;;1.20;1.10;;;14.90;78.00;;;;;;5046451;28;20041;-75
2023/11/01 07:31:15;;;;;;;2.13;1.30;;;14.90;78.00;;;;;;5018518;28;20021;-75
2023/11/01 07:33:42;;;;;;;2.70;1.40;;;14.90;78.00;;;;;;5040129;28;20025;-75
2023/11/01 07:36:10;;;;;;;3.42;1.50;;;14.90;78.00;;;;;;5040186;28;20512;-75
2023/11/01 07:38:36;;;;;;;2.20;1.20;;;14.90;78.00;;;;;;5032383;28;20026;-75
2023/11/01 07:41:02;;;;;;;2.13;1.10;;;14.90;78.00;;;;;;5029748;28;20033;-75
2023/11/01 07:43:27;;;;;;;2.08;1.20;;;14.90;78.00;;;;;;5018326;28;20028;-75
2023/11/01 07:45:56;;;;;;;3.38;1.38;;;14.90;78.00;;;;;;5040117;28;20102;-75
2023/11/01 07:48:22;;;;;;;1.63;1.20;;;14.90;78.00;;;;;;5036992;28;20369;-77
2023/11/01 07:50:47;;;;;;;1.60;1.20;;;14.90;78.00;;;;;;5005736;28;20082;-77
2023/11/01 07:53:13;;;;;;;1.45;1.20;;;15.00;78.00;;;;;;5013962;28;20029;-75
2023/11/01 07:55:39;;;;;;;2.15;1.20;;;15.00;78.00;;;;;;5030050;28;20364;-75
2023/11/01 07:58:06;;;;;;;1.63;1.30;;;15.00;78.00;;;;;;5053329;28;20060;-75
2023/11/01 08:00:32;;;;;;;1.58;1.15;;;15.00;78.00;;;;;;5021091;28;20037;-75
2023/11/01 08:02:57;;;;;;;1.45;1.20;;;15.00;78.00;;;;;;5017169;28;20026;-75
2023/11/01 08:05:23;;;;;;;1.98;1.20;;;15.00;78.00;;;;;;5017996;28;20084;-75
2023/11/01 08:07:49;;;;;;;1.33;1.13;;;15.00;78.00;;;;;;5041203;28;20187;-75
2023/11/01 08:10:15;;;;;;;1.27;1.10;;;15.00;78.00;;;;;;5016230;28;20364;-75
2023/11/01 08:12:41;;;;;;;1.17;1.10;;;15.00;78.00;;;;;;5032136;28;20052;-75
2023/11/01 08:15:08;;;;;;;2.35;1.02;;;15.00;78.00;;;;;;5002262;28;20037;-75
2023/11/01 08:17:33;;;;;;;1.73;1.17;;;15.00;78.00;;;;;;5001664;28;20489;-74
2023/11/01 08:19:59;;;;;;;2.03;1.23;;;15.00;78.00;;;;;;5035736;28;20048;-75
2023/11/01 08:22:25;;;;;;;1.42;1.23;;;15.10;78.10;;;;;;5035644;28;20037;-75
2023/11/01 08:24:51;;;;;;;1.33;0.95;;;15.10;78.10;;;;;;5042518;28;20029;-75
2023/11/01 08:27:18;;;;;;;2.00;1.10;;;15.10;78.00;;;;;;5016602;28;20030;-76
2023/11/01 08:29:44;;;;;;;1.13;1.08;;;15.10;78.00;;;;;;5026931;28;20049;-75
2023/11/01 08:32:10;;;;;;;1.33;1.15;;;15.10;78.00;;;;;;5026517;28;20367;-75
2023/11/01 08:34:36;;;;;;;3.13;1.50;;;15.10;78.10;;;;;;5008625;28;20026;-75
2023/11/01 08:37:05;;;;;;;2.35;1.30;;;15.10;78.00;;;;;;5022196;28;20029;-74
2023/11/01 08:39:32;;;;;;;2.40;1.25;;;15.10;78.00;;;;;;5040874;28;20029;-75
2023/11/01 08:42:00;;;;;;;2.03;1.02;;;15.10;78.00;;;;;;5022360;28;20041;-75
2023/11/01 08:44:26;;;;;;;2.30;1.40;;;15.10;78.00;;;;;;5025134;28;20026;-75
2023/11/01 08:46:53;;;;;;;1.77;1.00;;;15.10;78.00;;;;;;5024626;28;20116;-75
2023/11/01 08:49:20;;;;;;;1.45;1.20;;;15.20;78.00;;;;;;5033020;28;20029;-76
2023/11/01 08:51:46;;;;;;;1.65;1.10;;;15.20;78.00;;;;;;5038172;28;20022;-75
2023/11/01 08:54:13;;;;;;;1.60;1.23;;;15.20;78.00;;;;;;5036809;28;20119;-75
2023/11/01 08:56:39;;;;;;;1.75;1.15;;;15.20;78.00;;;;;;5033153;28;20505;-74
2023/11/01 08:59:05;;;;;;;1.85;1.38;;;15.20;77.90;;;;;;5023131;28;20045;-75
2023/11/01 09:01:31;;;;;;;1.67;1.20;;;15.30;78.00;;;;;;5023084;28;20531;-75
2023/11/01 09:03:58;;;;;;;2.65;1.30;;;15.20;77.90;;;;;;5039851;28;20045;-75
2023/11/01 09:06:24;;;;;;;4.75;1.50;;;15.30;77.90;;;;;;5035898;28;20046;-75
2023/11/01 09:08:50;;;;;;;2.17;1.10;;;15.30;77.90;;;;;;5034915;28;20025;-75
2023/11/01 09:11:15;;;;;;;1.80;1.20;;;15.30;77.90;;;;;;5038773;28;20029;-74
2023/11/01 09:13:43;;;;;;;2.38;1.25;;;15.30;77.90;;;;;;5011619;28;20028;-75
2023/11/01 09:16:09;;;;;;;1.85;1.15;;;15.30;77.90;;;;;;5011508;28;20049;-75
2023/11/01 09:18:35;;;;;;;1.17;1.00;;;15.30;78.00;;;;;;5021956;28;20045;-75
2023/11/01 09:21:01;;;;;;;1.92;1.25;;;15.30;77.90;;;;;;5033657;28;20099;-74
2023/11/01 09:23:27;;;;;;;1.20;1.10;;;15.30;77.90;;;;;;5046768;28;20036;-75
2023/11/01 09:25:54;;;;;;;1.30;1.20;;;15.40;78.00;;;;;;5032374;28;20033;-74
2023/11/01 09:28:19;;;;;;;2.83;1.40;;;15.40;78.00;;;;;;5050435;28;20048;-75
2023/11/01 09:30:45;;;;;;;1.80;1.30;;;15.40;77.90;;;;;;5038481;28;20477;-74
2023/11/01 09:33:11;;;;;;;2.15;1.40;;;15.40;77.90;;;;;;5042454;28;20033;-75
2023/11/01 09:35:37;;;;;;;1.50;1.25;;;15.40;77.90;;;;;;5035133;28;20470;-75
2023/11/01 09:38:03;;;;;;;1.27;0.95;;;15.40;77.90;;;;;;5040363;28;20029;-75
2023/11/01 09:40:29;;;;;;;2.22;1.13;;;15.40;77.90;;;;;;5001354;28;20360;-75
2023/11/01 09:42:56;;;;;;;1.60;1.10;;;15.50;77.90;;;;;;5043933;28;20029;-74
2023/11/01 09:45:22;;;;;;;1.85;1.10;;;15.50;77.90;;;;;;5035580;28;20444;-75
2023/11/01 09:47:50;;;;;;;2.50;1.50;;;15.50;77.90;;;;;;5008071;28;20033;-75
2023/11/01 09:50:17;;;;;;;2.47;1.42;;;15.50;77.90;;;;;;5024319;28;20030;-74
2023/11/01 09:52:43;;;;;;;1.30;1.08;;;15.50;77.80;;;;;;5028682;28;20024;-74
2023/11/01 09:55:12;;;;;;;1.35;1.10;;;15.50;77.80;;;;;;5052057;28;20460;-75
2023/11/01 09:57:40;;;;;;;1.45;0.98;;;15.50;77.80;;;;;;5039297;28;20423;-75
2023/11/01 10:00:07;;;;;;;2.95;1.10;;;15.50;77.80;;;;;;5042683;28;20029;-75
2023/11/01 10:02:33;;;;;;;2.55;1.17;;;15.60;77.80;;;;;;5020299;28;20048;-74
2023/11/01 10:04:59;;;;;;;1.50;1.00;;;15.60;77.80;;;;;;5036768;28;20033;-75
2023/11/01 10:07:25;;;;;;;1.42;1.20;;;15.60;77.70;;;;;;5036744;28;20033;-75
2023/11/01 10:09:51;;;;;;;2.00;1.00;;;15.60;77.70;;;;;;5022461;28;20385;-75
2023/11/01 10:12:17;;;;;;;2.03;1.35;;;15.60;77.70;;;;;;5009457;28;20029;-76
2023/11/01 10:14:43;;;;;;;1.13;1.02;;;15.60;77.70;;;;;;5026658;28;20040;-74
2023/11/01 10:17:09;;;;;;;1.58;1.02;;;15.60;77.60;;;;;;5007391;28;20037;-75
2023/11/01 10:19:35;;;;;;;1.17;1.00;;;15.70;77.70;;;;;;5039737;28;20133;-75
2023/11/01 10:22:01;;;;;;;2.67;1.40;;;15.70;77.70;;;;;;5015691;28;20108;-75
2023/11/01 10:24:29;;;;;;;1.15;1.10;;;15.70;77.60;;;;;;5021133;28;20041;-75
2023/11/01 10:26:58;;;;;;;2.63;1.50;;;15.70;77.60;;;;;;5052441;28;20100;-75
2023/11/01 10:29:26;;;;;;;1.20;1.10;;;15.80;77.60;;;;;;5038894;28;20061;-75
2023/11/01 10:31:54;;;;;;;1.75;1.10;;;15.80;77.60;;;;;;5025915;28;20033;-75
2023/11/01 10:34:29;;;;;;;2.17;1.10;;;15.80;77.60;;;;;;5037935;28;20033;-75
2023/11/01 10:36:57;;;;;;;1.60;1.10;;;15.80;77.60;;;;;;5021259;28;20036;-75
2023/11/01 10:39:24;;;;;;;1.42;1.20;;;15.80;77.50;;;;;;5027837;28;20408;-75
2023/11/01 10:41:51;;;;;;;2.95;1.38;;;15.80;77.50;;;;;;5024815;28;20047;-76
2023/11/01 10:44:20;;;;;;;1.00;0.95;;;15.80;77.40;;;;;;5039049;28;20025;-76
2023/11/01 10:46:47;;;;;;;1.40;0.93;;;15.80;77.40;;;;;;5040039;28;20056;-75
2023/11/01 10:49:13;;;;;;;1.48;1.17;;;15.80;77.40;;;;;;5037384;28;20029;-75
2023/11/01 10:51:41;;;;;;;1.20;1.00;;;15.90;77.50;;;;;;5014675;28;20041;-74
2023/11/01 10:54:11;;;;;;;1.35;1.05;;;15.90;77.40;;;;;;5017423;28;20054;-75
2023/11/01 10:56:37;;;;;;;2.38;1.10;;;15.90;77.40;;;;;;5045051;28;20529;-74
2023/11/01 10:59:12;;;;;;;1.73;1.17;;;15.90;77.40;;;;;;5043681;28;20033;-75
2023/11/01 11:01:49;;;;;;;2.50;1.00;;;16.00;77.50;;;;;;5032539;28;20372;-75
2023/11/01 11:04:20;;;;;;;2.05;1.30;;;16.00;77.50;;;;;;5016927;28;20125;-75
2023/11/01 11:07:17;;;;;;;1.95;1.05;;;16.00;77.40;;;;;;5037135;28;20045;-75
2023/11/01 11:09:43;;;;;;;1.52;1.08;;;16.00;77.50;;;;;;5055421;28;20220;-75
2023/11/01 11:12:15;;;;;;;1.23;1.10;;;16.00;77.30;;;;;;5011246;28;20117;-76
2023/11/01 11:14:51;;;;;;;2.33;1.10;;;16.00;77.30;;;;;;5023077;28;20096;-75
2023/11/01 11:17:28;;;;;;;1.73;1.15;;;16.00;77.30;;;;;;5039022;28;20026;-76
2023/11/01 11:20:06;;;;;;;2.38;1.25;;;16.10;77.40;;;;;;5035183;28;20050;-75
2023/11/01 11:23:02;;;;;;;1.85;1.02;;;16.10;77.40;;;;;;5035367;28;20440;-75
2023/11/01 11:25:37;;;;;;;1.55;1.00;;;16.10;77.40;;;;;;5031308;28;20025;-75
2023/11/01 11:28:07;;;;;;;1.38;1.10;;;16.10;77.30;;;;;;5031653;28;20057;-75
2023/11/01 11:31:06;;;;;;;2.42;1.30;;;16.10;77.30;;;;;;5013644;28;20025;-75
2023/11/01 11:33:38;;;;;;;1.85;1.00;;;16.10;77.30;;;;;;5036720;28;20029;-75
2023/11/01 11:36:20;;;;;;;1.15;1.08;;;16.20;77.30;;;;;;5011715;28;20041;-75
2023/11/01 11:38:57;;;;;;;2.10;1.17;;;16.20;77.30;;;;;;5041016;28;20410;-75
2023/11/01 11:41:23;;;;;;;1.55;1.10;;;16.20;77.30;;;;;;5033400;28;20032;-75
2023/11/01 11:44:07;;;;;;;1.35;1.13;;;16.20;77.20;;;;;;5022148;28;20469;-75
2023/11/01 11:46:40;;;;;;;2.08;1.15;;;16.20;77.30;;;;;;5025744;28;20517;-74
2023/11/01 11:49:23;;;;;;;1.27;1.10;;;16.30;77.30;;;;;;5019582;28;20040;-75
2023/11/01 11:52:04;;;;;;;1.67;1.17;;;16.30;77.30;;;;;;5038851;28;20457;-75
2023/11/01 11:54:32;;;;;;;1.10;1.00;;;16.30;77.20;;;;;;5032213;28;20033;-76
2023/11/01 11:56:59;;;;;;;1.30;1.20;;;16.30;77.20;;;;;;5039409;28;20037;-76
2023/11/01 11:59:27;;;;;;;1.67;1.33;;;16.30;77.20;;;;;;5017828;28;20029;-75
2023/11/01 12:01:55;;;;;;;1.48;1.00;;;16.30;77.80;;;;;;5022225;28;20474;-75
2023/11/01 12:04:21;;;;;;;1.25;1.13;;;16.40;77.20;;;;;;5039572;28;20037;-74
2023/11/01 12:06:50;;;;;;;1.70;1.15;;;16.40;77.10;;;;;;5040975;28;20053;-75
2023/11/01 12:09:20;;;;;;;1.80;1.10;;;16.40;77.10;;;;;;5041084;28;20033;-74
2023/11/01 12:11:51;;;;;;;3.30;1.30;;;16.40;77.10;;;;;;5036782;28;20029;-75
2023/11/01 12:14:24;;;;;;;1.38;1.27;;;16.50;77.10;;;;;;5045068;28;20492;-75
2023/11/01 12:16:52;;;;;;;1.17;1.10;;;16.50;77.10;;;;;;5043570;28;20490;-75
2023/11/01 12:19:19;;;;;;;1.42;1.25;;;16.50;77.10;;;;;;5042071;28;20041;-76
2023/11/01 12:21:49;;;;;;;1.35;1.20;;;16.50;77.10;;;;;;5025504;28;20045;-76
2023/11/01 12:24:16;;;;;;;1.15;0.93;;;16.50;77.00;;;;;;5043631;28;20029;-75
2023/11/01 12:27:09;;;;;;;1.60;1.00;;;16.50;77.00;;;;;;5041780;28;20054;-75
2023/11/01 12:29:41;;;;;;;1.17;1.00;;;16.60;77.10;;;;;;5036285;28;20060;-74
2023/11/01 12:32:09;;;;;;;1.88;1.05;;;16.60;77.00;;;;;;5039877;28;20033;-74
2023/11/01 12:34:59;;;;;;;1.92;1.35;;;16.60;77.00;;;;;;5044039;28;20018;-75
2023/11/01 12:37:28;;;;;;;1.17;1.00;;;16.60;77.00;;;;;;5039505;28;20208;-75
2023/11/01 12:40:04;;;;;;;1.48;1.08;;;16.60;76.90;;;;;;5036776;28;20056;-75
2023/11/01 12:42:31;;;;;;;0.98;0.98;;;16.70;77.00;;;;;;5047457;28;20068;-75
2023/11/01 12:44:58;;;;;;;1.75;1.10;;;16.70;77.00;;;;;;5051814;28;20124;-75
2023/11/01 12:47:27;;;;;;;1.27;1.10;;;16.70;77.00;;;;;;5037555;28;20033;-75
2023/11/01 12:49:54;;;;;;;1.55;1.10;;;16.70;77.00;;;;;;5028088;28;20063;-76